Time;durP1;ratioP1;P1;durP2;ratioP2;P2;SDS_P1;SDS_P2;PMS_P1;PMS_P2;Temp;Humidity;BMP_temperature;BMP_pressure;BME280_temperature;BME280_humidity;BME280_pressure;Samples;Min_cycle;Max_cycle;Signal;HPM_P1;HPM_P2
2020/12/08 00:01:54;;;;;;;16.30;9.20;;;-0.60;99.90;;;;;;5073365;28;20231;-71
2020/12/08 00:04:20;;;;;;;14.17;8.70;;;-0.60;99.90;;;;;;5071092;28;20247;-71
2020/12/08 00:06:48;;;;;;;15.67;9.63;;;-0.60;99.90;;;;;;5072928;28;20228;-70
2020/12/08 00:09:14;;;;;;;16.23;8.57;;;-0.60;99.90;;;;;;5072829;28;20260;-71
2020/12/08 00:11:41;;;;;;;17.80;8.63;;;-0.60;99.90;;;;;;5073827;28;20286;-71
2020/12/08 00:14:08;;;;;;;12.60;8.10;;;-0.60;99.90;;;;;;5072995;28;20267;-71
2020/12/08 00:16:34;;;;;;;16.40;8.10;;;-0.60;99.90;;;;;;5072551;28;20229;-71
2020/12/08 00:19:01;;;;;;;11.77;7.17;;;-0.60;99.90;;;;;;5073252;28;20236;-71
2020/12/08 00:21:31;;;;;;;14.43;9.03;;;-0.70;99.90;;;;;;5072354;28;20207;-71
2020/12/08 00:23:58;;;;;;;14.03;7.77;;;-0.70;99.90;;;;;;5073439;28;20263;-70
2020/12/08 00:26:25;;;;;;;12.17;7.73;;;-0.70;99.90;;;;;;5076484;28;20295;-71
2020/12/08 00:28:51;;;;;;;14.50;8.90;;;-0.70;99.90;;;;;;5075712;28;20229;-71
2020/12/08 00:31:18;;;;;;;9.53;6.67;;;-0.70;99.90;;;;;;5072483;28;20999;-72
2020/12/08 00:33:44;;;;;;;11.77;8.27;;;-0.70;99.90;;;;;;5073329;28;20689;-73
2020/12/08 00:36:11;;;;;;;13.63;7.80;;;-0.70;99.90;;;;;;5072624;28;20322;-71
2020/12/08 00:38:37;;;;;;;14.17;8.30;;;-0.70;99.90;;;;;;5072682;28;20236;-71
2020/12/08 00:41:04;;;;;;;12.93;8.73;;;-0.70;99.90;;;;;;5072436;28;20237;-70
2020/12/08 00:43:31;;;;;;;12.67;7.77;;;-0.60;99.90;;;;;;5069927;28;20252;-70
2020/12/08 00:45:57;;;;;;;10.30;5.90;;;-0.70;99.90;;;;;;5072121;28;20268;-70
2020/12/08 00:48:24;;;;;;;13.63;8.07;;;-0.70;99.90;;;;;;5070422;28;20217;-71
2020/12/08 00:50:50;;;;;;;10.87;7.73;;;-0.70;99.90;;;;;;5066489;28;20255;-71
2020/12/08 00:53:16;;;;;;;12.57;7.63;;;-0.70;99.90;;;;;;5071632;28;20291;-71
2020/12/08 00:55:43;;;;;;;12.40;7.20;;;-0.70;99.90;;;;;;5082975;28;20338;-71
2020/12/08 00:58:10;;;;;;;13.47;7.70;;;-0.80;99.90;;;;;;5072809;28;20251;-71
2020/12/08 01:00:36;;;;;;;11.77;7.47;;;-0.70;99.90;;;;;;5062085;28;20680;-71
2020/12/08 01:03:03;;;;;;;12.97;8.53;;;-0.80;99.90;;;;;;5072471;28;20244;-71
2020/12/08 01:05:29;;;;;;;18.97;7.47;;;-0.80;99.90;;;;;;5071966;28;20233;-70
2020/12/08 01:07:56;;;;;;;12.07;8.13;;;-0.80;99.90;;;;;;5077280;28;20263;-71
2020/12/08 01:10:22;;;;;;;14.40;7.67;;;-0.80;99.90;;;;;;5083355;28;20286;-72
2020/12/08 01:12:48;;;;;;;11.50;7.10;;;-0.70;99.90;;;;;;5072394;28;20722;-71
2020/12/08 01:15:16;;;;;;;14.00;7.37;;;-0.70;99.90;;;;;;5072460;28;20217;-71
2020/12/08 01:17:42;;;;;;;13.07;7.30;;;-0.80;99.90;;;;;;5073100;28;20638;-72
2020/12/08 01:20:09;;;;;;;13.93;7.57;;;-0.80;99.90;;;;;;5072855;28;20213;-72
2020/12/08 01:22:35;;;;;;;14.13;7.23;;;-0.80;99.90;;;;;;5071444;28;20731;-72
2020/12/08 01:25:02;;;;;;;13.50;7.63;;;-0.70;99.90;;;;;;5076340;28;20217;-71
2020/12/08 01:27:31;;;;;;;13.13;7.83;;;-0.80;99.90;;;;;;5080546;28;20242;-71
2020/12/08 01:29:58;;;;;;;10.33;5.97;;;-0.80;99.90;;;;;;5072037;28;20629;-71
2020/12/08 01:32:25;;;;;;;13.57;8.23;;;-0.80;99.90;;;;;;5072224;28;20244;-71
2020/12/08 01:34:51;;;;;;;14.00;7.67;;;-0.80;99.90;;;;;;5069184;28;20244;-71
2020/12/08 01:37:18;;;;;;;12.23;7.27;;;-0.80;99.90;;;;;;5072503;28;20254;-71
2020/12/08 01:39:44;;;;;;;15.87;8.40;;;-0.80;99.90;;;;;;5071951;28;20599;-71
2020/12/08 01:42:11;;;;;;;14.40;7.90;;;-0.80;99.90;;;;;;5071971;28;20209;-71
2020/12/08 01:44:37;;;;;;;10.53;6.90;;;-0.80;99.90;;;;;;5072559;28;20594;-71
2020/12/08 01:47:04;;;;;;;9.93;6.23;;;-0.80;99.90;;;;;;5072315;28;20553;-71
2020/12/08 01:49:31;;;;;;;13.20;7.40;;;-0.80;99.90;;;;;;5080940;28;20308;-71
2020/12/08 01:51:59;;;;;;;12.00;7.43;;;-0.80;99.90;;;;;;5067957;28;20293;-71
2020/12/08 01:54:25;;;;;;;12.80;6.87;;;-0.80;99.90;;;;;;5066797;28;20292;-72
2020/12/08 01:56:52;;;;;;;14.77;7.77;;;-0.90;99.90;;;;;;5072090;28;20240;-72
2020/12/08 01:59:18;;;;;;;10.87;6.27;;;-0.90;99.90;;;;;;5071615;28;20202;-72
2020/12/08 02:01:45;;;;;;;13.83;7.50;;;-0.90;99.90;;;;;;5072150;28;20241;-71
2020/12/08 02:04:11;;;;;;;14.13;8.07;;;-0.90;99.90;;;;;;5071725;28;20255;-71
2020/12/08 02:06:38;;;;;;;13.73;7.63;;;-0.90;99.90;;;;;;5072027;28;20236;-71
2020/12/08 02:09:05;;;;;;;15.83;7.57;;;-0.90;99.90;;;;;;5084427;28;20601;-71
2020/12/08 02:11:31;;;;;;;13.37;7.00;;;-0.90;99.90;;;;;;5073224;28;20286;-73
2020/12/08 02:13:58;;;;;;;13.03;7.27;;;-1.00;99.90;;;;;;5075397;28;20248;-73
2020/12/08 02:16:24;;;;;;;12.17;6.17;;;-0.90;99.90;;;;;;5081960;28;20626;-73
2020/12/08 02:18:53;;;;;;;13.17;7.67;;;-0.90;99.90;;;;;;5090733;28;20240;-72
2020/12/08 02:21:30;;;;;;;13.73;7.30;;;-1.00;99.90;;;;;;5080885;28;20277;-72
2020/12/08 02:23:56;;;;;;;10.37;6.77;;;-0.90;99.90;;;;;;5086966;28;20235;-73
2020/12/08 02:26:23;;;;;;;10.83;6.20;;;-1.00;99.90;;;;;;5079227;28;20248;-73
2020/12/08 02:28:49;;;;;;;5.50;3.97;;;-0.90;99.90;;;;;;5091886;28;20744;-73
2020/12/08 02:31:16;;;;;;;14.70;7.40;;;-0.90;99.90;;;;;;5092961;28;20296;-72
2020/12/08 02:33:42;;;;;;;9.03;6.00;;;-0.90;99.90;;;;;;5091457;28;20209;-73
2020/12/08 02:36:09;;;;;;;10.17;6.03;;;-0.90;99.90;;;;;;5079290;28;20229;-72
2020/12/08 02:38:36;;;;;;;11.80;6.93;;;-0.90;99.90;;;;;;5091010;28;20260;-74
2020/12/08 02:41:04;;;;;;;14.20;7.07;;;-0.90;99.90;;;;;;5081841;28;20299;-74
2020/12/08 02:43:30;;;;;;;12.40;5.90;;;-0.90;99.90;;;;;;5075218;28;20201;-72
2020/12/08 02:45:58;;;;;;;10.33;6.40;;;-0.90;99.90;;;;;;5074514;28;20233;-73
2020/12/08 02:48:25;;;;;;;9.13;5.23;;;-0.90;99.90;;;;;;5088144;28;20333;-72
2020/12/08 02:50:53;;;;;;;12.27;6.63;;;-0.90;99.90;;;;;;5070606;28;20240;-72
2020/12/08 02:53:20;;;;;;;11.07;7.27;;;-0.90;99.90;;;;;;5075068;28;20735;-72
2020/12/08 02:55:47;;;;;;;8.07;4.77;;;-0.90;99.90;;;;;;5085043;28;20201;-73
2020/12/08 02:58:14;;;;;;;12.23;6.67;;;-0.90;99.90;;;;;;5065432;28;20256;-73
2020/12/08 03:00:40;;;;;;;13.03;6.83;;;-0.80;99.90;;;;;;5074910;28;20209;-72
2020/12/08 03:03:07;;;;;;;14.13;6.50;;;-0.80;99.90;;;;;;5075203;28;20263;-74
2020/12/08 03:05:34;;;;;;;15.03;6.93;;;-0.80;99.90;;;;;;5072150;28;20643;-72
2020/12/08 03:08:00;;;;;;;11.50;6.33;;;-0.70;99.90;;;;;;5075053;28;20737;-71
2020/12/08 03:10:26;;;;;;;11.87;6.33;;;-0.70;99.90;;;;;;5074789;28;20240;-72
2020/12/08 03:12:54;;;;;;;11.73;6.13;;;-0.70;99.90;;;;;;5074505;28;20316;-73
2020/12/08 03:15:20;;;;;;;11.43;6.57;;;-0.70;99.90;;;;;;5082011;28;20244;-72
2020/12/08 03:17:47;;;;;;;11.30;5.17;;;-0.70;99.90;;;;;;5074492;28;20243;-72
2020/12/08 03:20:13;;;;;;;10.97;6.37;;;-0.70;99.90;;;;;;5074880;28;20286;-71
2020/12/08 03:22:41;;;;;;;15.63;6.83;;;-0.60;99.90;;;;;;5068443;28;20242;-71
2020/12/08 03:25:07;;;;;;;15.27;6.97;;;-0.70;99.90;;;;;;5074086;28;20233;-72
2020/12/08 03:27:36;;;;;;;9.57;6.53;;;-0.70;99.90;;;;;;5074411;28;20654;-72
2020/12/08 03:30:04;;;;;;;9.20;5.57;;;-0.70;99.90;;;;;;5066380;28;20550;-72
2020/12/08 03:32:30;;;;;;;10.53;6.60;;;-0.70;99.90;;;;;;5068310;28;20297;-73
2020/12/08 03:34:57;;;;;;;10.17;5.63;;;-0.70;99.90;;;;;;5073239;28;20285;-73
2020/12/08 03:37:23;;;;;;;10.23;5.83;;;-0.60;99.90;;;;;;5074097;28;20213;-72
2020/12/08 03:39:50;;;;;;;10.67;5.50;;;-0.60;99.90;;;;;;5074178;28;20588;-72
2020/12/08 03:42:16;;;;;;;8.20;4.70;;;-0.60;99.90;;;;;;5073595;28;20305;-72
2020/12/08 03:44:42;;;;;;;10.50;5.97;;;-0.50;99.90;;;;;;5079707;28;20232;-72
2020/12/08 03:47:10;;;;;;;7.63;5.37;;;-0.60;99.90;;;;;;5073326;28;20245;-71
2020/12/08 03:49:36;;;;;;;7.73;5.37;;;-0.60;99.90;;;;;;5074092;28;20221;-72
2020/12/08 03:52:03;;;;;;;9.40;5.73;;;-0.60;99.90;;;;;;5074139;28;20232;-73
2020/12/08 03:54:29;;;;;;;8.03;5.03;;;-0.60;99.90;;;;;;5079825;28;20244;-72
2020/12/08 03:56:56;;;;;;;9.43;5.57;;;-0.60;99.90;;;;;;5079357;28;20267;-72
2020/12/08 03:59:22;;;;;;;10.60;5.43;;;-0.60;99.90;;;;;;5077753;28;20292;-72
2020/12/08 04:01:50;;;;;;;10.37;5.10;;;-0.60;99.90;;;;;;5083474;28;20254;-71
2020/12/08 04:04:18;;;;;;;7.77;5.37;;;-0.60;99.90;;;;;;5075735;28;20239;-72
2020/12/08 04:06:45;;;;;;;8.93;5.53;;;-0.60;99.90;;;;;;5071024;28;20646;-72
2020/12/08 04:09:11;;;;;;;10.77;5.80;;;-0.60;99.90;;;;;;5087460;28;20703;-71
2020/12/08 04:11:38;;;;;;;11.23;5.40;;;-0.60;99.90;;;;;;5083084;28;20229;-71
2020/12/08 04:14:05;;;;;;;8.00;5.10;;;-0.60;99.90;;;;;;5082115;28;20666;-71
2020/12/08 04:16:32;;;;;;;8.47;4.93;;;-0.60;99.90;;;;;;5075782;28;20612;-72
2020/12/08 04:18:59;;;;;;;10.33;5.10;;;-0.60;99.90;;;;;;5079491;28;20236;-73
2020/12/08 04:21:28;;;;;;;11.00;5.50;;;-0.50;99.90;;;;;;5074635;28;20281;-73
2020/12/08 04:23:59;;;;;;;8.83;5.30;;;-0.60;99.90;;;;;;5082153;28;20232;-72
2020/12/08 04:26:26;;;;;;;9.50;5.33;;;-0.50;99.90;;;;;;5072353;28;20240;-72
2020/12/08 04:28:53;;;;;;;10.07;4.90;;;-0.50;99.90;;;;;;5085214;28;20302;-73
2020/12/08 04:31:19;;;;;;;8.17;5.70;;;-0.60;99.90;;;;;;5076861;28;20582;-72
2020/12/08 04:33:46;;;;;;;13.60;6.07;;;-0.50;99.90;;;;;;5070511;28;20209;-73
2020/12/08 04:36:14;;;;;;;8.17;5.27;;;-0.50;99.90;;;;;;5077501;28;20259;-73
2020/12/08 04:38:42;;;;;;;7.37;4.53;;;-0.50;99.90;;;;;;5083628;28;20663;-73
2020/12/08 04:41:09;;;;;;;8.63;5.03;;;-0.50;99.90;;;;;;5066397;28;20210;-73
2020/12/08 04:43:39;;;;;;;6.70;4.37;;;-0.50;99.90;;;;;;5081058;28;20240;-73
2020/12/08 04:46:06;;;;;;;6.30;4.13;;;-0.40;99.90;;;;;;5069882;28;20208;-73
2020/12/08 04:48:35;;;;;;;5.63;3.73;;;-0.40;99.90;;;;;;5085488;28;20217;-72
2020/12/08 04:51:01;;;;;;;5.93;3.87;;;-0.50;99.90;;;;;;5087125;28;20208;-73
2020/12/08 04:53:28;;;;;;;6.20;4.07;;;-0.50;99.90;;;;;;5077315;28;20236;-73
2020/12/08 04:55:55;;;;;;;6.57;3.60;;;-0.50;99.90;;;;;;5072223;28;20228;-72
2020/12/08 04:58:22;;;;;;;6.57;4.17;;;-0.50;99.90;;;;;;5073081;28;20244;-72
2020/12/08 05:00:49;;;;;;;5.57;3.63;;;-0.60;99.90;;;;;;5073029;28;20213;-71
2020/12/08 05:03:22;;;;;;;7.60;4.30;;;-0.60;99.90;;;;;;5073312;28;20316;-72
2020/12/08 05:05:48;;;;;;;5.97;3.83;;;-0.60;99.90;;;;;;5064400;28;20237;-72
2020/12/08 05:08:15;;;;;;;6.47;4.27;;;-0.60;99.90;;;;;;5075120;28;20260;-73
2020/12/08 05:10:43;;;;;;;5.70;3.97;;;-0.60;99.90;;;;;;5066046;28;20284;-73
2020/12/08 05:13:16;;;;;;;6.00;4.57;;;-0.60;99.90;;;;;;5066963;28;20290;-73
2020/12/08 05:15:42;;;;;;;6.57;4.27;;;-0.60;99.90;;;;;;5065272;28;20201;-72
2020/12/08 05:18:11;;;;;;;6.90;4.27;;;-0.60;99.90;;;;;;5074537;28;20228;-73
2020/12/08 05:20:38;;;;;;;7.07;4.03;;;-0.60;99.90;;;;;;5066563;28;20210;-73
2020/12/08 05:23:04;;;;;;;11.10;4.67;;;-0.60;99.90;;;;;;5072997;28;20219;-74
2020/12/08 05:25:32;;;;;;;6.83;4.53;;;-0.60;99.90;;;;;;5074460;28;20239;-71
2020/12/08 05:28:00;;;;;;;7.53;4.40;;;-0.60;99.90;;;;;;5077025;28;20232;-73
2020/12/08 05:30:28;;;;;;;7.17;4.20;;;-0.60;99.90;;;;;;5065600;28;20213;-72
2020/12/08 05:32:55;;;;;;;7.03;4.77;;;-0.50;99.90;;;;;;5077366;28;20317;-72
2020/12/08 05:35:24;;;;;;;6.07;3.73;;;-0.50;99.90;;;;;;5075083;28;20294;-73
2020/12/08 05:37:52;;;;;;;8.63;3.97;;;-0.50;99.90;;;;;;5076165;28;20290;-73
2020/12/08 05:40:20;;;;;;;7.30;4.53;;;-0.40;99.90;;;;;;5075086;28;20233;-73
2020/12/08 05:42:48;;;;;;;8.70;4.63;;;-0.40;99.90;;;;;;5069314;28;20288;-73
2020/12/08 05:45:16;;;;;;;6.13;3.93;;;-0.40;99.90;;;;;;5076668;28;20624;-73
2020/12/08 05:47:47;;;;;;;7.77;4.57;;;-0.40;99.90;;;;;;5074713;28;20240;-73
2020/12/08 05:50:14;;;;;;;7.67;4.53;;;-0.40;99.90;;;;;;5074333;28;20259;-73
2020/12/08 05:52:47;;;;;;;7.03;4.43;;;-0.40;99.90;;;;;;5078474;28;20201;-72
2020/12/08 05:55:15;;;;;;;6.20;4.20;;;-0.30;99.90;;;;;;5078696;28;20658;-73
2020/12/08 05:57:43;;;;;;;8.23;4.87;;;-0.40;99.90;;;;;;5080722;28;20283;-72
2020/12/08 06:00:21;;;;;;;7.43;4.67;;;-0.40;99.90;;;;;;5073734;28;20209;-72
2020/12/08 06:02:48;;;;;;;6.53;5.20;;;-0.40;99.90;;;;;;5073470;28;20240;-73
2020/12/08 06:05:28;;;;;;;8.63;5.37;;;-0.40;99.90;;;;;;5074243;28;20568;-73
2020/12/08 06:07:55;;;;;;;10.13;4.90;;;-0.40;99.90;;;;;;5080407;28;20235;-73
2020/12/08 06:10:21;;;;;;;8.80;5.33;;;-0.40;99.90;;;;;;5085486;28;20692;-72
2020/12/08 06:12:57;;;;;;;7.00;4.43;;;-0.40;99.90;;;;;;5075129;28;20240;-72
2020/12/08 06:15:25;;;;;;;8.43;5.20;;;-0.40;99.90;;;;;;5074791;28;20228;-73
2020/12/08 06:17:53;;;;;;;9.27;5.73;;;-0.50;99.90;;;;;;5082404;28;20204;-72
2020/12/08 06:20:20;;;;;;;9.63;5.80;;;-0.50;99.90;;;;;;5076555;28;20289;-73
2020/12/08 06:22:57;;;;;;;10.30;5.00;;;-0.50;99.90;;;;;;5078461;28;20232;-72
2020/12/08 06:25:24;;;;;;;7.43;5.10;;;-0.40;99.90;;;;;;5076618;28;20208;-72
2020/12/08 06:27:51;;;;;;;9.20;5.60;;;-0.50;99.90;;;;;;5083037;28;20240;-73
2020/12/08 06:30:21;;;;;;;11.47;5.73;;;-0.50;99.90;;;;;;5075889;28;20311;-73
2020/12/08 06:32:49;;;;;;;8.57;5.70;;;-0.50;99.90;;;;;;5081145;28;20215;-73
2020/12/08 06:35:17;;;;;;;8.57;5.83;;;-0.50;99.90;;;;;;5085002;28;20202;-73
2020/12/08 06:37:46;;;;;;;8.80;5.33;;;-0.50;99.90;;;;;;5076218;28;20590;-73
2020/12/08 06:40:15;;;;;;;7.67;5.27;;;-0.50;99.90;;;;;;5086972;28;20227;-72
2020/12/08 06:42:41;;;;;;;6.53;4.00;;;-0.50;99.90;;;;;;5079239;28;20211;-72
2020/12/08 06:45:10;;;;;;;8.23;6.03;;;-0.50;99.90;;;;;;5087814;28;20666;-73
2020/12/08 06:47:37;;;;;;;9.23;5.90;;;-0.50;99.90;;;;;;5078900;28;20197;-73
2020/12/08 06:50:05;;;;;;;8.50;5.50;;;-0.50;99.90;;;;;;5081053;28;20238;-72
2020/12/08 06:52:33;;;;;;;9.67;5.27;;;-0.50;99.90;;;;;;5087596;28;20682;-73
2020/12/08 06:55:02;;;;;;;10.07;6.03;;;-0.50;99.90;;;;;;5080457;28;20630;-74
2020/12/08 06:57:28;;;;;;;7.17;5.30;;;-0.50;99.90;;;;;;5074315;28;20259;-73
2020/12/08 07:00:03;;;;;;;8.07;5.43;;;-0.50;99.90;;;;;;5075566;28;20244;-74
2020/12/08 07:02:31;;;;;;;9.70;5.67;;;-0.50;99.90;;;;;;5073931;28;20247;-73
2020/12/08 07:05:00;;;;;;;9.70;4.47;;;-0.50;99.90;;;;;;5066697;28;20205;-73
2020/12/08 07:07:29;;;;;;;6.30;4.67;;;-0.40;99.90;;;;;;5076153;28;20209;-77
2020/12/08 07:09:58;;;;;;;7.10;4.97;;;-0.40;99.90;;;;;;5064937;28;20723;-78
2020/12/08 07:12:25;;;;;;;11.77;5.53;;;-0.40;99.90;;;;;;5079243;28;20633;-78
2020/12/08 07:14:58;;;;;;;8.60;5.87;;;-0.50;99.90;;;;;;5079798;28;20205;-79
2020/12/08 07:17:34;;;;;;;7.93;5.10;;;-0.50;99.90;;;;;;5092619;28;20236;-79
2020/12/08 07:20:04;;;;;;;11.27;5.60;;;-0.40;99.90;;;;;;5079241;28;20209;-78
2020/12/08 07:22:41;;;;;;;9.17;5.67;;;-0.40;99.90;;;;;;5079117;28;20205;-78
2020/12/08 07:25:11;;;;;;;10.23;6.17;;;-0.40;99.90;;;;;;5065228;28;20201;-78
2020/12/08 07:27:43;;;;;;;9.73;6.27;;;-0.40;99.90;;;;;;5079559;28;20549;-77
2020/12/08 07:30:10;;;;;;;8.73;6.10;;;-0.40;99.90;;;;;;5064358;28;20268;-77
2020/12/08 07:32:37;;;;;;;9.23;5.93;;;-0.30;99.90;;;;;;5083070;28;20670;-79
2020/12/08 07:35:04;;;;;;;10.97;5.77;;;-0.30;99.90;;;;;;5083147;28;20201;-79
2020/12/08 07:37:37;;;;;;;7.90;5.27;;;-0.30;99.90;;;;;;5082843;28;20235;-78
2020/12/08 07:40:09;;;;;;;10.07;5.93;;;-0.20;99.90;;;;;;5079832;28;20273;-80
2020/12/08 07:42:37;;;;;;;11.63;6.40;;;-0.20;99.90;;;;;;5079937;28;20704;-79
2020/12/08 07:45:08;;;;;;;14.43;6.03;;;-0.30;99.90;;;;;;5081288;28;20247;-77
2020/12/08 07:47:37;;;;;;;9.80;5.97;;;-0.20;99.90;;;;;;5077144;28;20288;-77
2020/12/08 07:50:04;;;;;;;13.40;6.70;;;-0.30;99.90;;;;;;5070853;28;20222;-77
2020/12/08 07:52:32;;;;;;;7.53;5.47;;;-0.30;99.90;;;;;;5079013;28;20650;-80
2020/12/08 07:54:59;;;;;;;10.50;6.33;;;-0.30;99.90;;;;;;5077427;28;20214;-77
2020/12/08 07:57:27;;;;;;;11.60;6.03;;;-0.30;99.90;;;;;;5080322;28;20663;-80
2020/12/08 07:59:54;;;;;;;9.70;5.83;;;-0.30;99.90;;;;;;5090035;28;20207;-79
2020/12/08 08:02:21;;;;;;;10.23;6.60;;;-0.30;99.90;;;;;;5096605;28;20870;-79
2020/12/08 08:04:47;;;;;;;8.70;6.00;;;-0.20;99.90;;;;;;5089317;28;20197;-79
2020/12/08 08:07:14;;;;;;;14.30;6.60;;;-0.20;99.90;;;;;;5086312;28;20216;-79
2020/12/08 08:09:40;;;;;;;9.60;6.53;;;-0.30;99.90;;;;;;5092521;28;20242;-80
2020/12/08 08:12:06;;;;;;;11.57;6.30;;;-0.20;99.90;;;;;;5078699;28;20240;-79
2020/12/08 08:14:35;;;;;;;10.07;6.30;;;-0.20;99.90;;;;;;5085600;28;20221;-79
2020/12/08 08:17:05;;;;;;;20.13;6.63;;;-0.30;99.90;;;;;;5087031;28;20208;-79
2020/12/08 08:19:31;;;;;;;11.90;6.63;;;-0.30;99.90;;;;;;5076062;28;20267;-78
2020/12/08 08:21:58;;;;;;;20.70;6.10;;;-0.20;99.90;;;;;;5076065;28;20259;-75
2020/12/08 08:24:24;;;;;;;10.00;5.87;;;-0.20;99.90;;;;;;5084800;28;20722;-74
2020/12/08 08:26:51;;;;;;;12.83;6.43;;;-0.20;99.90;;;;;;5075458;28;20244;-73
2020/12/08 08:29:17;;;;;;;9.70;6.43;;;-0.20;99.90;;;;;;5082210;28;20253;-72
2020/12/08 08:31:44;;;;;;;9.77;6.10;;;-0.20;99.90;;;;;;5075407;28;20287;-72
2020/12/08 08:34:11;;;;;;;12.17;7.10;;;-0.20;99.90;;;;;;5090018;28;20299;-76
2020/12/08 08:36:48;;;;;;;10.80;5.50;;;-0.20;99.90;;;;;;5088075;28;20244;-77
2020/12/08 08:39:14;;;;;;;12.13;5.80;;;-0.20;99.90;;;;;;5074521;28;20691;-75
2020/12/08 08:41:41;;;;;;;6.73;4.53;;;-0.10;99.90;;;;;;5071997;28;20204;-76
2020/12/08 08:44:07;;;;;;;11.50;5.70;;;-0.20;99.90;;;;;;5089772;28;20209;-80
2020/12/08 08:46:34;;;;;;;10.57;5.67;;;-0.20;99.90;;;;;;5083244;28;20662;-80
2020/12/08 08:49:01;;;;;;;10.03;6.00;;;-0.20;99.90;;;;;;5075213;28;20633;-76
2020/12/08 08:51:28;;;;;;;12.90;6.13;;;-0.30;99.90;;;;;;5076865;28;20266;-74
2020/12/08 08:53:54;;;;;;;10.47;6.23;;;-0.20;99.90;;;;;;5084628;28;20201;-72
2020/12/08 08:56:20;;;;;;;7.70;4.47;;;-0.10;99.90;;;;;;5080707;28;20291;-75
2020/12/08 08:58:47;;;;;;;9.00;5.40;;;-0.10;99.90;;;;;;5092144;28;20228;-75
2020/12/08 09:01:14;;;;;;;9.87;5.60;;;-0.10;99.90;;;;;;5064343;28;20309;-73
2020/12/08 09:03:40;;;;;;;10.67;5.20;;;-0.10;99.90;;;;;;5071150;28;20294;-77
2020/12/08 09:06:07;;;;;;;10.43;5.83;;;-0.10;99.90;;;;;;5071545;28;20205;-76
2020/12/08 09:08:34;;;;;;;7.73;5.03;;;0.00;99.90;;;;;;5075439;28;20304;-71
2020/12/08 09:11:00;;;;;;;9.13;5.37;;;0.00;99.90;;;;;;5070802;28;20714;-71
2020/12/08 09:13:27;;;;;;;8.20;5.63;;;0.00;99.90;;;;;;5075252;28;20638;-72
2020/12/08 09:15:54;;;;;;;8.37;5.77;;;0.00;99.90;;;;;;5077787;28;20205;-75
2020/12/08 09:18:21;;;;;;;12.03;6.10;;;0.00;99.90;;;;;;5075273;28;20209;-74
2020/12/08 09:20:47;;;;;;;6.70;4.67;;;0.00;99.90;;;;;;5075973;28;20236;-73
2020/12/08 09:23:14;;;;;;;9.30;5.37;;;0.10;99.90;;;;;;5074358;28;20288;-74
2020/12/08 09:25:41;;;;;;;8.40;5.73;;;0.10;99.90;;;;;;5071435;28;20288;-73
2020/12/08 09:28:07;;;;;;;10.60;6.63;;;0.10;99.90;;;;;;5074823;28;20262;-73
2020/12/08 09:30:34;;;;;;;11.27;5.93;;;0.10;99.90;;;;;;5071268;28;20287;-75
2020/12/08 09:33:00;;;;;;;11.13;6.33;;;0.20;99.90;;;;;;5075655;28;20236;-72
2020/12/08 09:35:27;;;;;;;10.93;6.27;;;0.20;99.90;;;;;;5071962;28;20221;-72
2020/12/08 09:37:53;;;;;;;11.43;6.43;;;0.20;99.90;;;;;;5071621;28;20209;-72
2020/12/08 09:40:21;;;;;;;11.20;6.80;;;0.30;99.90;;;;;;5067300;28;20225;-72
2020/12/08 09:42:48;;;;;;;9.40;6.50;;;0.20;99.90;;;;;;5075540;28;20579;-73
2020/12/08 09:45:14;;;;;;;9.67;5.90;;;0.20;99.90;;;;;;5078678;28;20247;-71
2020/12/08 09:47:41;;;;;;;10.73;6.33;;;0.30;99.90;;;;;;5071597;28;20209;-72
2020/12/08 09:50:10;;;;;;;11.43;7.03;;;0.30;99.90;;;;;;5071975;28;20225;-73
2020/12/08 09:52:37;;;;;;;11.80;6.83;;;0.30;99.90;;;;;;5081281;28;20228;-71
2020/12/08 09:55:04;;;;;;;9.87;6.83;;;0.30;99.90;;;;;;5080123;28;20247;-72
2020/12/08 09:57:31;;;;;;;12.40;7.40;;;0.20;99.90;;;;;;5072601;28;20739;-73
2020/12/08 09:59:58;;;;;;;13.23;6.57;;;0.30;99.90;;;;;;5073651;28;20236;-72
2020/12/08 10:02:25;;;;;;;10.93;6.90;;;0.30;99.90;;;;;;5070108;28;20296;-73
2020/12/08 10:04:51;;;;;;;13.73;6.33;;;0.30;99.90;;;;;;5076346;28;20221;-73
2020/12/08 10:07:19;;;;;;;12.23;7.07;;;0.30;99.90;;;;;;5069902;28;20202;-73
2020/12/08 10:09:45;;;;;;;11.50;6.63;;;0.30;99.90;;;;;;5074193;28;20213;-72
2020/12/08 10:12:12;;;;;;;16.57;7.17;;;0.30;99.90;;;;;;5067105;28;20250;-72
2020/12/08 10:14:41;;;;;;;11.50;6.77;;;0.30;99.90;;;;;;5076542;28;20248;-72
2020/12/08 10:17:07;;;;;;;12.00;7.47;;;0.30;99.90;;;;;;5068830;28;20363;-72
2020/12/08 10:19:34;;;;;;;11.13;6.67;;;0.30;99.90;;;;;;5073928;28;20229;-72
2020/12/08 10:22:01;;;;;;;14.53;8.50;;;0.30;99.90;;;;;;5069254;28;20251;-72
2020/12/08 10:24:28;;;;;;;12.60;7.33;;;0.30;99.90;;;;;;5073941;28;20259;-72
2020/12/08 10:26:54;;;;;;;14.40;6.03;;;0.30;99.90;;;;;;5068806;28;20240;-73
2020/12/08 10:29:21;;;;;;;16.27;8.07;;;0.30;99.90;;;;;;5073845;28;20244;-72
2020/12/08 10:31:51;;;;;;;16.13;8.40;;;0.30;99.90;;;;;;5074673;28;20601;-73
2020/12/08 10:34:18;;;;;;;15.23;7.73;;;0.30;99.90;;;;;;5079742;28;20208;-75
2020/12/08 10:36:46;;;;;;;13.53;7.53;;;0.30;99.90;;;;;;5079634;28;20538;-72
2020/12/08 10:39:13;;;;;;;13.70;7.53;;;0.20;99.90;;;;;;5087770;28;20651;-73
2020/12/08 10:41:40;;;;;;;14.10;8.13;;;0.30;99.90;;;;;;5072595;28;20202;-73
2020/12/08 10:44:06;;;;;;;12.90;8.00;;;0.30;99.90;;;;;;5080438;28;20198;-77
2020/12/08 10:46:33;;;;;;;18.13;11.20;;;0.20;99.90;;;;;;5074198;28;20505;-75
2020/12/08 10:49:00;;;;;;;15.63;9.27;;;0.30;99.90;;;;;;5077068;28;20260;-74
2020/12/08 10:51:28;;;;;;;12.40;8.13;;;0.30;99.90;;;;;;5078823;28;20205;-73
2020/12/08 10:53:54;;;;;;;14.37;8.30;;;0.30;99.90;;;;;;5074772;28;20205;-73
2020/12/08 10:56:22;;;;;;;11.13;7.27;;;0.30;99.90;;;;;;5075650;28;20292;-74
2020/12/08 10:58:50;;;;;;;12.33;7.17;;;0.40;99.90;;;;;;5075381;28;20627;-75
2020/12/08 11:01:20;;;;;;;15.17;8.57;;;0.30;99.90;;;;;;5074598;28;20209;-73
2020/12/08 11:03:47;;;;;;;12.77;6.67;;;0.40;99.90;;;;;;5072028;28;20241;-74
2020/12/08 11:06:20;;;;;;;12.83;8.30;;;0.40;99.90;;;;;;5073872;28;20205;-74
2020/12/08 11:08:47;;;;;;;17.27;9.20;;;0.30;99.90;;;;;;5075036;28;20685;-75
2020/12/08 11:11:14;;;;;;;16.20;7.83;;;0.30;99.90;;;;;;5075475;28;20233;-73
2020/12/08 11:13:41;;;;;;;11.67;6.87;;;0.30;99.90;;;;;;5076364;28;20296;-74
2020/12/08 11:16:07;;;;;;;17.70;7.57;;;0.30;99.90;;;;;;5077870;28;20204;-74
2020/12/08 11:18:34;;;;;;;16.37;8.33;;;0.30;99.90;;;;;;5073279;28;20398;-73
2020/12/08 11:21:01;;;;;;;13.53;7.47;;;0.30;99.90;;;;;;5071668;28;20217;-73
2020/12/08 11:23:28;;;;;;;11.27;7.10;;;0.30;99.90;;;;;;5069861;28;20646;-71
2020/12/08 11:25:55;;;;;;;14.00;6.90;;;0.30;99.90;;;;;;5071714;28;20637;-70
2020/12/08 11:28:22;;;;;;;13.87;7.87;;;0.30;99.90;;;;;;5077222;28;20298;-73
2020/12/08 11:30:48;;;;;;;13.90;7.83;;;0.30;99.90;;;;;;5071537;28;20255;-73
2020/12/08 11:33:14;;;;;;;14.93;7.53;;;0.30;99.90;;;;;;5072729;28;20229;-72
2020/12/08 11:35:41;;;;;;;17.50;8.77;;;0.10;99.90;;;;;;5076092;28;20217;-72
2020/12/08 11:38:07;;;;;;;14.30;9.03;;;0.30;99.90;;;;;;5073796;28;20265;-72
2020/12/08 11:40:35;;;;;;;12.27;7.37;;;0.30;99.90;;;;;;5073128;28;20283;-73
2020/12/08 11:43:01;;;;;;;13.73;7.40;;;0.30;99.90;;;;;;5072429;28;20304;-72
2020/12/08 11:45:31;;;;;;;17.80;8.20;;;0.30;99.90;;;;;;5089003;28;20602;-81
2020/12/08 11:47:57;;;;;;;15.03;9.13;;;0.30;99.90;;;;;;5094528;28;20208;-80
2020/12/08 11:50:24;;;;;;;12.97;7.80;;;0.30;99.90;;;;;;5078998;28;20251;-79
2020/12/08 11:52:51;;;;;;;12.47;7.93;;;0.30;99.90;;;;;;5087349;28;20206;-78
2020/12/08 11:55:18;;;;;;;13.27;8.40;;;0.30;99.90;;;;;;5077291;28;20210;-78
2020/12/08 11:57:45;;;;;;;14.03;8.07;;;0.30;99.90;;;;;;5082543;28;20213;-78
2020/12/08 12:00:11;;;;;;;19.47;8.70;;;0.30;99.90;;;;;;5078022;28;20648;-78
2020/12/08 12:02:38;;;;;;;12.10;8.37;;;0.30;99.90;;;;;;5079085;28;20247;-74
2020/12/08 12:05:05;;;;;;;13.47;8.23;;;0.30;99.90;;;;;;5070686;28;20209;-75
2020/12/08 12:07:32;;;;;;;17.57;8.03;;;0.40;99.90;;;;;;5082310;28;20266;-77
2020/12/08 12:09:58;;;;;;;16.13;8.93;;;0.30;99.90;;;;;;5078079;28;20225;-75
2020/12/08 12:12:25;;;;;;;15.40;8.13;;;0.30;99.90;;;;;;5072804;28;20282;-74
2020/12/08 12:14:52;;;;;;;15.53;8.57;;;0.30;99.90;;;;;;5073863;28;20209;-73
2020/12/08 12:17:19;;;;;;;14.63;9.77;;;0.40;99.90;;;;;;5069920;28;20276;-74
2020/12/08 12:19:45;;;;;;;15.53;8.67;;;0.40;99.90;;;;;;5071974;28;20266;-76
2020/12/08 12:22:13;;;;;;;17.63;9.40;;;0.30;99.90;;;;;;5076751;28;20300;-74
2020/12/08 12:24:39;;;;;;;15.17;9.23;;;0.40;99.90;;;;;;5069897;28;20641;-75
2020/12/08 12:27:06;;;;;;;15.90;8.93;;;0.30;99.90;;;;;;5075688;28;20696;-75
2020/12/08 12:29:32;;;;;;;15.73;8.87;;;0.40;99.90;;;;;;5074160;28;20221;-72
2020/12/08 12:32:00;;;;;;;15.57;8.33;;;0.40;99.90;;;;;;5074784;28;20217;-73
2020/12/08 12:34:26;;;;;;;14.47;9.00;;;0.30;99.90;;;;;;5073389;28;20623;-71
2020/12/08 12:36:53;;;;;;;16.53;10.00;;;0.30;99.90;;;;;;5072568;28;20256;-72
2020/12/08 12:39:19;;;;;;;16.77;8.67;;;0.30;99.90;;;;;;5080604;28;20760;-72
2020/12/08 12:41:46;;;;;;;17.43;9.30;;;0.20;99.90;;;;;;5074984;28;20233;-73
2020/12/08 12:44:12;;;;;;;14.20;8.20;;;0.30;99.90;;;;;;5075511;28;20622;-71